Time;durP1;ratioP1;P1;durP2;ratioP2;P2;SDS_P1;SDS_P2;PMS_P1;PMS_P2;Temp;Humidity;BMP_temperature;BMP_pressure;BME280_temperature;BME280_humidity;BME280_pressure;Samples;Min_cycle;Max_cycle;Signal;HPM_P1;HPM_P2
2022/05/13 00:01:18;;;;;;;5.25;1.45;;;;;;;;;;5017752;28;20034;-78
2022/05/13 00:03:43;;;;;;;4.20;1.42;;;;;;;;;;5018233;28;20034;-78
2022/05/13 00:06:09;;;;;;;3.50;1.60;;;;;;;;;;5017801;28;20067;-78
2022/05/13 00:08:34;;;;;;;4.72;1.67;;;;;;;;;;5014041;28;20287;-79
2022/05/13 00:11:02;;;;;;;4.53;1.63;;;;;;;;;;5014254;28;20180;-78
2022/05/13 00:13:29;;;;;;;4.88;1.60;;;;;;;;;;5018117;28;20037;-78
2022/05/13 00:15:55;;;;;;;5.07;1.92;;;;;;;;;;5015456;28;20148;-77
2022/05/13 00:18:20;;;;;;;4.57;1.65;;;;;;;;;;5015714;28;20104;-79
2022/05/13 00:20:46;;;;;;;4.10;1.60;;;;;;;;;;5016963;28;20026;-78
2022/05/13 00:23:11;;;;;;;4.70;1.70;;;;;;;;;;5017005;28;20096;-78
2022/05/13 00:25:37;;;;;;;5.43;1.60;;;;;;;;;;5014874;28;20056;-78
2022/05/13 00:28:05;;;;;;;4.97;1.50;;;;;;;;;;5015022;28;20270;-78
2022/05/13 00:30:35;;;;;;;3.20;1.50;;;;;;;;;;5016948;28;20094;-78
2022/05/13 00:33:00;;;;;;;3.35;1.50;;;;;;;;;;5016743;28;20034;-78
2022/05/13 00:35:26;;;;;;;13.80;1.58;;;;;;;;;;5017565;28;20471;-78
2022/05/13 00:37:51;;;;;;;2.90;1.42;;;;;;;;;;5016419;28;20033;-78
2022/05/13 00:40:20;;;;;;;2.45;1.40;;;;;;;;;;5015154;28;20060;-78
2022/05/13 00:42:46;;;;;;;2.45;1.30;;;;;;;;;;5015648;28;20021;-78
2022/05/13 00:45:14;;;;;;;4.55;1.38;;;;;;;;;;5014527;28;20048;-78
2022/05/13 00:47:40;;;;;;;3.38;1.45;;;;;;;;;;5015006;28;20021;-79
2022/05/13 00:50:06;;;;;;;5.13;1.20;;;;;;;;;;5015221;28;20391;-78
2022/05/13 00:52:32;;;;;;;6.18;1.50;;;;;;;;;;5013921;28;20107;-78
2022/05/13 00:55:01;;;;;;;3.63;1.60;;;;;;;;;;5015851;28;20038;-78
2022/05/13 00:57:26;;;;;;;3.22;1.80;;;;;;;;;;5014743;28;20554;-78
2022/05/13 00:59:53;;;;;;;4.93;1.60;;;;;;;;;;5016529;28;20069;-78
2022/05/13 01:02:18;;;;;;;3.33;1.73;;;;;;;;;;5015849;28;20109;-78
2022/05/13 01:04:43;;;;;;;3.40;2.08;;;;;;;;;;5015833;28;20060;-78
2022/05/13 01:07:12;;;;;;;5.70;1.50;;;;;;;;;;5016117;28;20436;-79
2022/05/13 01:09:45;;;;;;;5.38;1.63;;;;;;;;;;5017780;28;20438;-78
2022/05/13 01:12:31;;;;;;;3.90;1.60;;;;;;;;;;5018389;28;20022;-79
2022/05/13 01:15:01;;;;;;;2.67;1.60;;;;;;;;;;5016696;28;20033;-79
2022/05/13 01:20:17;;;;;;;6.60;1.70;;;;;;;;;;5014207;28;20072;-79
2022/05/13 01:22:55;;;;;;;4.50;1.45;;;;;;;;;;5014901;28;20036;-77
2022/05/13 01:25:24;;;;;;;3.63;1.80;;;;;;;;;;5017084;28;20018;-78
2022/05/13 01:27:51;;;;;;;4.68;1.50;;;;;;;;;;5016039;28;20033;-80
2022/05/13 01:30:29;;;;;;;5.80;1.77;;;;;;;;;;5015812;28;20026;-79
2022/05/13 01:32:54;;;;;;;6.20;1.83;;;;;;;;;;5015363;28;20125;-79
2022/05/13 01:35:21;;;;;;;3.65;1.50;;;;;;;;;;5015784;28;20065;-79
2022/05/13 01:37:47;;;;;;;3.70;1.83;;;;;;;;;;5015116;28;20029;-79
2022/05/13 01:40:13;;;;;;;3.50;1.60;;;;;;;;;;5015408;28;20018;-78
2022/05/13 01:42:38;;;;;;;2.60;1.50;;;;;;;;;;5017370;28;20030;-76
2022/05/13 01:45:05;;;;;;;4.07;2.10;;;;;;;;;;5017472;28;20030;-77
2022/05/13 01:47:30;;;;;;;5.38;1.65;;;;;;;;;;5018148;28;20251;-77
2022/05/13 01:49:56;;;;;;;5.03;1.90;;;;;;;;;;5017757;28;20026;-77
2022/05/13 01:52:22;;;;;;;4.75;2.00;;;;;;;;;;5016756;28;20041;-77
2022/05/13 01:54:47;;;;;;;4.07;1.83;;;;;;;;;;5018688;28;20022;-77
2022/05/13 01:57:13;;;;;;;3.63;1.75;;;;;;;;;;5020607;28;20034;-77
2022/05/13 01:59:38;;;;;;;2.83;1.60;;;;;;;;;;5020086;28;20383;-78
2022/05/13 02:02:03;;;;;;;5.18;1.92;;;;;;;;;;5020217;28;20076;-78
2022/05/13 02:04:29;;;;;;;2.38;1.45;;;;;;;;;;5023125;28;20064;-78
2022/05/13 02:06:54;;;;;;;2.35;1.70;;;;;;;;;;5020181;28;20092;-80
2022/05/13 02:09:20;;;;;;;5.93;1.70;;;;;;;;;;5019190;28;20029;-78
2022/05/13 02:11:45;;;;;;;3.38;1.80;;;;;;;;;;5016943;28;20267;-77
2022/05/13 02:14:13;;;;;;;6.65;1.67;;;;;;;;;;5019165;28;20073;-75
2022/05/13 02:16:38;;;;;;;5.95;1.58;;;;;;;;;;5016657;28;20052;-77
2022/05/13 02:19:03;;;;;;;4.87;2.00;;;;;;;;;;5016587;28;20483;-78
2022/05/13 02:21:28;;;;;;;3.17;1.90;;;;;;;;;;5016737;28;20266;-77
2022/05/13 02:23:54;;;;;;;7.25;2.00;;;;;;;;;;5016663;28;20137;-77
2022/05/13 02:26:19;;;;;;;9.27;1.80;;;;;;;;;;5016208;28;20026;-76
2022/05/13 02:28:44;;;;;;;3.67;2.00;;;;;;;;;;5016505;28;20475;-77
2022/05/13 02:31:11;;;;;;;3.40;1.98;;;;;;;;;;5016392;28;20669;-77
2022/05/13 02:33:37;;;;;;;3.88;2.13;;;;;;;;;;5016416;28;20495;-77
2022/05/13 02:36:03;;;;;;;2.47;1.77;;;;;;;;;;5015062;28;20410;-77
2022/05/13 02:38:29;;;;;;;3.45;1.95;;;;;;;;;;5017781;28;20056;-78
2022/05/13 02:41:13;;;;;;;5.10;1.80;;;;;;;;;;5019524;28;20065;-78
2022/05/13 02:43:50;;;;;;;2.72;1.92;;;;;;;;;;5017374;28;20076;-79
2022/05/13 02:46:28;;;;;;;4.07;2.00;;;;;;;;;;5018505;28;20065;-78
2022/05/13 02:48:54;;;;;;;3.03;1.65;;;;;;;;;;5018517;28;20100;-78
2022/05/13 02:51:20;;;;;;;6.35;1.90;;;;;;;;;;5019327;28;20112;-78
2022/05/13 02:53:46;;;;;;;6.80;2.20;;;;;;;;;;5019403;28;20112;-78
2022/05/13 02:56:12;;;;;;;2.83;1.75;;;;;;;;;;5018775;28;20060;-79
2022/05/13 02:58:38;;;;;;;4.60;1.88;;;;;;;;;;5015567;28;20112;-78
2022/05/13 03:01:05;;;;;;;5.60;1.60;;;;;;;;;;5016530;28;20033;-78
2022/05/13 03:03:31;;;;;;;2.65;1.75;;;;;;;;;;5019897;28;20365;-78
2022/05/13 03:05:57;;;;;;;4.80;1.90;;;;;;;;;;5018570;28;20030;-78
2022/05/13 03:08:22;;;;;;;5.03;2.17;;;;;;;;;;5017106;28;20041;-77
2022/05/13 03:10:47;;;;;;;5.37;1.80;;;;;;;;;;5015540;28;20065;-77
2022/05/13 03:13:18;;;;;;;6.97;1.90;;;;;;;;;;5016011;28;20270;-78
2022/05/13 03:15:43;;;;;;;6.53;2.10;;;;;;;;;;5016248;28;20493;-77
2022/05/13 03:18:08;;;;;;;2.97;1.90;;;;;;;;;;5015812;28;20034;-78
2022/05/13 03:20:33;;;;;;;3.67;1.80;;;;;;;;;;5015458;28;20123;-77
2022/05/13 03:22:59;;;;;;;4.22;2.10;;;;;;;;;;5015268;28;20313;-77
2022/05/13 03:25:24;;;;;;;5.57;2.00;;;;;;;;;;5015324;28;20030;-77
2022/05/13 03:27:49;;;;;;;4.60;2.17;;;;;;;;;;5015597;28;20034;-77
2022/05/13 03:30:18;;;;;;;5.18;1.83;;;;;;;;;;5015067;28;20210;-77
2022/05/13 03:32:43;;;;;;;5.00;2.20;;;;;;;;;;5013933;28;20036;-78
2022/05/13 03:35:12;;;;;;;3.92;2.00;;;;;;;;;;5016371;28;20030;-79
2022/05/13 03:37:37;;;;;;;9.50;1.92;;;;;;;;;;5016221;28;20022;-78
2022/05/13 03:40:03;;;;;;;5.13;2.00;;;;;;;;;;5017037;28;20030;-78
2022/05/13 03:42:29;;;;;;;3.85;1.95;;;;;;;;;;5016714;28;20021;-78
2022/05/13 03:44:55;;;;;;;5.88;1.98;;;;;;;;;;5016012;28;20434;-77
2022/05/13 03:47:20;;;;;;;4.53;1.88;;;;;;;;;;5015061;28;20028;-78
2022/05/13 03:49:45;;;;;;;6.03;2.35;;;;;;;;;;5014781;28;20021;-78
2022/05/13 03:52:11;;;;;;;4.80;2.20;;;;;;;;;;5014862;28;20030;-78
2022/05/13 03:54:38;;;;;;;7.30;2.00;;;;;;;;;;5015790;28;20752;-78
2022/05/13 03:57:05;;;;;;;6.20;2.08;;;;;;;;;;5014798;28;20022;-77
2022/05/13 03:59:31;;;;;;;4.00;2.13;;;;;;;;;;5013968;28;20045;-78
2022/05/13 04:01:57;;;;;;;5.97;2.30;;;;;;;;;;5015058;28;20101;-78
2022/05/13 04:04:22;;;;;;;8.07;2.00;;;;;;;;;;5014477;28;20452;-78
2022/05/13 04:09:32;;;;;;;;;;;;;;;;;;5014950;28;20024;-77
2022/05/13 04:17:25;;;;;;;3.22;2.08;;;;;;;;;;5014249;28;20037;-77
2022/05/13 04:19:50;;;;;;;3.00;2.00;;;;;;;;;;5013960;28;20026;-76
2022/05/13 04:22:15;;;;;;;3.37;2.00;;;;;;;;;;5014188;28;20251;-77
2022/05/13 04:24:41;;;;;;;3.67;2.10;;;;;;;;;;5013869;28;20270;-77
2022/05/13 04:27:06;;;;;;;4.97;2.40;;;;;;;;;;5014253;28;20343;-77
2022/05/13 04:29:33;;;;;;;3.90;2.28;;;;;;;;;;5013885;28;20274;-77
2022/05/13 04:31:58;;;;;;;5.22;2.72;;;;;;;;;;5013358;28;20033;-77
2022/05/13 04:34:24;;;;;;;5.15;2.97;;;;;;;;;;5016867;28;20403;-77
2022/05/13 04:36:49;;;;;;;6.25;2.58;;;;;;;;;;5016025;28;20032;-78
2022/05/13 04:39:15;;;;;;;5.75;2.25;;;;;;;;;;5018194;28;20430;-79
2022/05/13 04:44:24;;;;;;;4.82;2.60;;;;;;;;;;5017326;28;20093;-78
2022/05/13 04:46:49;;;;;;;7.15;2.42;;;;;;;;;;5016149;28;20033;-78
2022/05/13 04:49:14;;;;;;;7.73;2.47;;;;;;;;;;5014893;28;20022;-78
2022/05/13 04:51:40;;;;;;;5.50;2.15;;;;;;;;;;5015058;28;20330;-77
2022/05/13 04:54:07;;;;;;;6.70;2.00;;;;;;;;;;5015110;28;20030;-79
2022/05/13 04:56:32;;;;;;;8.55;2.40;;;;;;;;;;5014769;28;20107;-76
2022/05/13 04:58:58;;;;;;;8.98;2.33;;;;;;;;;;5014487;28;20472;-78
2022/05/13 05:01:24;;;;;;;7.47;2.40;;;;;;;;;;5012983;28;20384;-78
2022/05/13 05:03:50;;;;;;;3.65;2.22;;;;;;;;;;5012467;28;20026;-78
2022/05/13 05:06:17;;;;;;;4.00;2.35;;;;;;;;;;5014307;28;20400;-78
2022/05/13 05:08:43;;;;;;;6.32;2.40;;;;;;;;;;5014654;28;20105;-79
2022/05/13 05:11:10;;;;;;;3.58;2.08;;;;;;;;;;5013967;28;20443;-79
2022/05/13 05:13:40;;;;;;;5.75;2.42;;;;;;;;;;5015758;28;20487;-79
2022/05/13 05:16:06;;;;;;;6.22;2.05;;;;;;;;;;5015132;28;20120;-78
2022/05/13 05:18:32;;;;;;;8.50;2.50;;;;;;;;;;5015618;28;20026;-79
2022/05/13 05:20:57;;;;;;;3.22;1.95;;;;;;;;;;5014709;28;20120;-78
2022/05/13 05:23:29;;;;;;;8.23;2.08;;;;;;;;;;5015524;28;20029;-79
2022/05/13 05:25:55;;;;;;;3.50;2.05;;;;;;;;;;5014960;28;20487;-78
2022/05/13 05:28:20;;;;;;;6.07;2.40;;;;;;;;;;5015855;28;20080;-77
2022/05/13 05:30:46;;;;;;;4.32;2.10;;;;;;;;;;5014224;28;20487;-77
2022/05/13 05:33:12;;;;;;;6.07;2.17;;;;;;;;;;5016662;28;20107;-78
2022/05/13 05:35:38;;;;;;;6.15;2.80;;;;;;;;;;5014443;28;20026;-78
2022/05/13 05:38:04;;;;;;;6.50;2.50;;;;;;;;;;5016688;28;20096;-77
2022/05/13 05:40:30;;;;;;;4.18;2.17;;;;;;;;;;5018780;28;20030;-78
2022/05/13 05:42:56;;;;;;;6.88;2.10;;;;;;;;;;5016786;28;20022;-78
2022/05/13 05:45:23;;;;;;;9.27;2.60;;;;;;;;;;5015704;28;20040;-77
2022/05/13 05:47:48;;;;;;;5.75;2.55;;;;;;;;;;5016787;28;20041;-76
2022/05/13 05:50:18;;;;;;;4.25;2.30;;;;;;;;;;5015332;28;20026;-77
2022/05/13 05:52:44;;;;;;;4.22;2.20;;;;;;;;;;5016978;28;20038;-77
2022/05/13 05:58:06;;;;;;;8.95;2.45;;;;;;;;;;5017415;28;20036;-77
2022/05/13 06:00:33;;;;;;;4.32;2.17;;;;;;;;;;5015787;28;20121;-78
2022/05/13 06:02:58;;;;;;;4.45;2.58;;;;;;;;;;5016315;28;20018;-76
2022/05/13 06:05:25;;;;;;;6.00;2.47;;;;;;;;;;5018282;28;20088;-77
2022/05/13 06:07:51;;;;;;;6.78;2.30;;;;;;;;;;5018095;28;20080;-77
2022/05/13 06:10:17;;;;;;;7.45;2.20;;;;;;;;;;5018136;28;20037;-77
2022/05/13 06:12:43;;;;;;;4.00;2.17;;;;;;;;;;5016104;28;20026;-77
2022/05/13 06:15:09;;;;;;;5.38;2.30;;;;;;;;;;5016580;28;20212;-77
2022/05/13 06:17:34;;;;;;;5.10;2.15;;;;;;;;;;5016631;28;20033;-77
2022/05/13 06:20:04;;;;;;;4.75;2.45;;;;;;;;;;5015160;28;20078;-76
2022/05/13 06:22:29;;;;;;;6.43;2.42;;;;;;;;;;5014948;28;20562;-76
2022/05/13 06:24:54;;;;;;;4.87;2.40;;;;;;;;;;5016732;28;20110;-77
2022/05/13 06:27:21;;;;;;;6.03;2.13;;;;;;;;;;5016635;28;20274;-78
2022/05/13 06:29:47;;;;;;;6.88;2.40;;;;;;;;;;5017388;28;20291;-75
2022/05/13 06:32:12;;;;;;;3.75;2.05;;;;;;;;;;5016066;28;20048;-77
2022/05/13 06:34:37;;;;;;;6.60;2.20;;;;;;;;;;5016326;28;20018;-77
2022/05/13 06:37:02;;;;;;;9.30;2.20;;;;;;;;;;5015857;28;20247;-77
2022/05/13 06:39:28;;;;;;;3.78;2.15;;;;;;;;;;5015963;28;20283;-77
2022/05/13 06:41:53;;;;;;;3.77;2.60;;;;;;;;;;5015817;28;20029;-75
2022/05/13 06:44:18;;;;;;;7.65;2.58;;;;;;;;;;5015753;28;20259;-77
2022/05/13 06:46:44;;;;;;;4.37;2.53;;;;;;;;;;5014410;28;20026;-76
2022/05/13 06:49:11;;;;;;;13.95;2.42;;;;;;;;;;5015289;28;20263;-76
2022/05/13 06:51:37;;;;;;;11.63;2.60;;;;;;;;;;5015543;28;20026;-78
2022/05/13 06:54:07;;;;;;;8.40;2.63;;;;;;;;;;5016902;28;20033;-77
2022/05/13 06:56:35;;;;;;;5.38;2.50;;;;;;;;;;5016501;28;20395;-78
2022/05/13 06:59:01;;;;;;;10.40;2.78;;;;;;;;;;5015449;28;20386;-77
2022/05/13 07:01:26;;;;;;;7.20;2.45;;;;;;;;;;5015634;28;20033;-78
2022/05/13 07:03:54;;;;;;;7.68;2.72;;;;;;;;;;5016530;28;20037;-78
2022/05/13 07:06:20;;;;;;;6.50;2.20;;;;;;;;;;5015868;28;20542;-77
2022/05/13 07:08:46;;;;;;;3.03;1.92;;;;;;;;;;5014054;28;20026;-77
2022/05/13 07:11:12;;;;;;;7.45;2.25;;;;;;;;;;5013936;28;20484;-77
2022/05/13 07:13:37;;;;;;;6.88;2.33;;;;;;;;;;5015436;28;20128;-78
2022/05/13 07:16:03;;;;;;;6.03;2.20;;;;;;;;;;5015852;28;20052;-78
2022/05/13 07:18:28;;;;;;;6.68;2.38;;;;;;;;;;5017169;28;20040;-78
2022/05/13 07:20:53;;;;;;;7.10;2.20;;;;;;;;;;5017538;28;20018;-78
2022/05/13 07:23:19;;;;;;;8.15;2.35;;;;;;;;;;5017310;28;20301;-78
2022/05/13 07:25:44;;;;;;;9.95;2.65;;;;;;;;;;5017342;28;20030;-77
2022/05/13 07:28:09;;;;;;;9.52;2.28;;;;;;;;;;5015561;28;20029;-78
2022/05/13 07:30:35;;;;;;;4.40;1.80;;;;;;;;;;5015158;28;20076;-78
2022/05/13 07:33:00;;;;;;;4.95;1.90;;;;;;;;;;5015658;28;20018;-78
2022/05/13 07:35:25;;;;;;;10.73;1.93;;;;;;;;;;5015667;28;20034;-77
2022/05/13 07:37:50;;;;;;;7.97;1.93;;;;;;;;;;5015106;28;20263;-77
2022/05/13 07:43:00;;;;;;;8.52;1.70;;;;;;;;;;5015261;28;20334;-81
2022/05/13 07:45:26;;;;;;;10.70;2.10;;;;;;;;;;5015257;28;20050;-77
2022/05/13 07:47:51;;;;;;;4.97;1.80;;;;;;;;;;5014675;28;20156;-77
2022/05/13 07:50:16;;;;;;;4.50;1.58;;;;;;;;;;5014533;28;20021;-78
2022/05/13 07:52:42;;;;;;;7.15;1.60;;;;;;;;;;5014590;28;20022;-77
2022/05/13 07:55:12;;;;;;;4.18;1.38;;;;;;;;;;5015198;28;20032;-78
2022/05/13 07:57:43;;;;;;;10.20;1.30;;;;;;;;;;5013158;28;20028;-78
2022/05/13 08:00:25;;;;;;;7.00;1.17;;;;;;;;;;5013392;28;20022;-77
2022/05/13 08:02:56;;;;;;;4.18;1.20;;;;;;;;;;5014910;28;20064;-78
2022/05/13 08:05:22;;;;;;;8.18;1.63;;;;;;;;;;5016025;28;20036;-77
2022/05/13 08:07:47;;;;;;;6.93;1.35;;;;;;;;;;5015509;28;20029;-77
2022/05/13 08:10:14;;;;;;;3.38;1.20;;;;;;;;;;5014340;28;20022;-77
2022/05/13 08:12:39;;;;;;;3.95;1.50;;;;;;;;;;5014999;28;20419;-78
2022/05/13 08:15:05;;;;;;;8.50;1.40;;;;;;;;;;5015819;28;20025;-77
2022/05/13 08:17:34;;;;;;;4.05;1.40;;;;;;;;;;5014756;28;20435;-78
2022/05/13 08:19:59;;;;;;;3.20;1.42;;;;;;;;;;5015744;28;20033;-78
2022/05/13 08:22:25;;;;;;;10.90;1.95;;;;;;;;;;5016218;28;20021;-78
2022/05/13 08:24:50;;;;;;;5.05;1.35;;;;;;;;;;5016335;28;20028;-79
2022/05/13 08:27:15;;;;;;;4.05;1.30;;;;;;;;;;5015661;28;20500;-79
2022/05/13 08:29:40;;;;;;;5.83;1.23;;;;;;;;;;5012609;28;20084;-78
2022/05/13 08:32:06;;;;;;;3.00;1.40;;;;;;;;;;5012970;28;20825;-78
2022/05/13 08:34:31;;;;;;;7.80;1.30;;;;;;;;;;5014045;28;20759;-77
2022/05/13 08:36:56;;;;;;;5.90;1.43;;;;;;;;;;5014555;28;20045;-76
2022/05/13 08:39:21;;;;;;;4.53;1.60;;;;;;;;;;5013818;28;20326;-77
2022/05/13 08:42:08;;;;;;;3.65;1.30;;;;;;;;;;5013922;28;20471;-78
2022/05/13 08:44:33;;;;;;;2.92;1.10;;;;;;;;;;5014012;28;20110;-77
2022/05/13 08:47:18;;;;;;;2.15;1.15;;;;;;;;;;5013825;28;20057;-78
2022/05/13 08:49:51;;;;;;;4.25;1.38;;;;;;;;;;5014206;28;20022;-78
2022/05/13 08:55:31;;;;;;;3.63;1.65;;;;;;;;;;5018202;28;20341;-78
2022/05/13 08:57:58;;;;;;;2.95;1.45;;;;;;;;;;5013531;28;20083;-78
2022/05/13 09:00:39;;;;;;;5.88;1.50;;;;;;;;;;5015162;28;20064;-78
2022/05/13 09:03:25;;;;;;;4.03;1.55;;;;;;;;;;5015036;28;20026;-79
2022/05/13 09:06:00;;;;;;;4.25;1.75;;;;;;;;;;5014977;28;20032;-77
2022/05/13 09:08:25;;;;;;;5.97;1.42;;;;;;;;;;5014307;28;20022;-77
2022/05/13 09:10:57;;;;;;;8.77;1.77;;;;;;;;;;5014858;28;20025;-77
2022/05/13 09:13:40;;;;;;;9.13;1.45;;;;;;;;;;5014941;28;20033;-78
2022/05/13 09:16:08;;;;;;;2.83;1.50;;;;;;;;;;5015328;28;20035;-77
2022/05/13 09:18:53;;;;;;;4.15;1.30;;;;;;;;;;5012526;28;20295;-77
2022/05/13 09:21:20;;;;;;;6.10;1.60;;;;;;;;;;5013818;28;20029;-77
2022/05/13 09:23:45;;;;;;;5.78;1.52;;;;;;;;;;5013627;28;20026;-76
2022/05/13 09:26:15;;;;;;;9.98;1.90;;;;;;;;;;5013827;28;20499;-76
2022/05/13 09:29:10;;;;;;;7.90;1.67;;;;;;;;;;5014953;28;20026;-78
2022/05/13 09:32:00;;;;;;;2.88;1.30;;;;;;;;;;5011996;28;20099;-78
2022/05/13 09:34:34;;;;;;;4.80;1.60;;;;;;;;;;5012341;28;20026;-77
2022/05/13 09:37:07;;;;;;;8.35;1.70;;;;;;;;;;5013734;28;20026;-77
2022/05/13 09:39:44;;;;;;;6.22;1.92;;;;;;;;;;5012130;28;20488;-77
2022/05/13 09:42:26;;;;;;;5.35;1.40;;;;;;;;;;5013073;28;20044;-77
2022/05/13 09:44:52;;;;;;;9.77;1.63;;;;;;;;;;5012141;28;20026;-77
2022/05/13 09:47:30;;;;;;;2.95;1.52;;;;;;;;;;5012124;28;20033;-77
2022/05/13 09:49:56;;;;;;;6.43;1.52;;;;;;;;;;5013510;28;20025;-78
2022/05/13 09:52:36;;;;;;;3.88;1.65;;;;;;;;;;5013021;28;20449;-76
2022/05/13 09:55:46;;;;;;;3.58;1.65;;;;;;;;;;5013066;28;20022;-78
2022/05/13 09:58:28;;;;;;;6.15;1.35;;;;;;;;;;5010225;28;20101;-78
2022/05/13 10:01:03;;;;;;;7.07;1.58;;;;;;;;;;5014995;28;20072;-78
2022/05/13 10:03:36;;;;;;;3.88;1.70;;;;;;;;;;5014445;28;20025;-78
2022/05/13 10:06:15;;;;;;;2.42;1.40;;;;;;;;;;5014177;28;20106;-78
2022/05/13 10:13:57;;;;;;;4.15;1.60;;;;;;;;;;5014954;28;20018;-77
2022/05/13 10:14:38;;;;;;;3.88;1.50;;;;;;;;;;5013630;28;20107;-77
2022/05/13 10:17:16;;;;;;;9.18;1.30;;;;;;;;;;5013945;28;20029;-78
2022/05/13 10:19:47;;;;;;;4.63;1.40;;;;;;;;;;5014633;28;20034;-78
2022/05/13 10:22:15;;;;;;;5.70;1.40;;;;;;;;;;5016160;28;20030;-78
2022/05/13 10:24:54;;;;;;;8.93;1.85;;;;;;;;;;5018244;28;20022;-79
2022/05/13 10:27:29;;;;;;;6.25;1.60;;;;;;;;;;5018489;28;20072;-77
2022/05/13 10:30:13;;;;;;;10.00;2.35;;;;;;;;;;5017091;28;20029;-77
2022/05/13 10:32:44;;;;;;;12.70;1.80;;;;;;;;;;5016524;28;20049;-77
2022/05/13 10:35:16;;;;;;;8.60;1.35;;;;;;;;;;5017907;28;20105;-78
2022/05/13 10:38:05;;;;;;;4.50;1.50;;;;;;;;;;5019025;28;20088;-78
2022/05/13 10:40:35;;;;;;;4.28;1.40;;;;;;;;;;5017759;28;20053;-78
2022/05/13 10:43:34;;;;;;;7.43;1.63;;;;;;;;;;5017977;28;20032;-78
2022/05/13 10:46:12;;;;;;;7.72;1.65;;;;;;;;;;5017720;28;20032;-78
2022/05/13 10:48:38;;;;;;;3.53;1.40;;;;;;;;;;5016570;28;20026;-78
2022/05/13 10:51:28;;;;;;;9.02;1.38;;;;;;;;;;5017893;28;20040;-78
2022/05/13 10:54:08;;;;;;;4.00;1.48;;;;;;;;;;5017754;28;20058;-77
2022/05/13 10:56:57;;;;;;;5.20;1.48;;;;;;;;;;5017547;28;20471;-77
2022/05/13 10:59:42;;;;;;;6.70;1.50;;;;;;;;;;5016529;28;20084;-77
2022/05/13 11:02:28;;;;;;;5.57;1.48;;;;;;;;;;5016225;28;20029;-77
2022/05/13 11:05:14;;;;;;;4.55;1.50;;;;;;;;;;5016667;28;20030;-78
2022/05/13 11:07:51;;;;;;;3.83;1.20;;;;;;;;;;5016752;28;20072;-77
2022/05/13 11:10:42;;;;;;;6.00;1.50;;;;;;;;;;5016569;28;20415;-78
2022/05/13 11:13:33;;;;;;;3.92;1.45;;;;;;;;;;5015690;28;20091;-77
2022/05/13 11:16:02;;;;;;;6.40;1.30;;;;;;;;;;5016234;28;20036;-77
2022/05/13 11:18:48;;;;;;;4.03;1.35;;;;;;;;;;5014406;28;20064;-78
2022/05/13 11:21:26;;;;;;;4.32;1.52;;;;;;;;;;5014070;28;20056;-78
2022/05/13 11:27:21;;;;;;;6.40;1.60;;;;;;;;;;5016438;28;20049;-77
2022/05/13 11:29:55;;;;;;;6.68;1.60;;;;;;;;;;5014494;28;20033;-76
2022/05/13 11:32:37;;;;;;;6.35;1.65;;;;;;;;;;5015894;28;20032;-78
2022/05/13 11:35:21;;;;;;;5.38;1.48;;;;;;;;;;5013482;28;20121;-75
2022/05/13 11:37:47;;;;;;;;;;;;;;;;;;5016500;28;20076;-78
2022/05/13 11:40:19;;;;;;;6.10;1.58;;;;;;;;;;5015730;28;19917;-74
2022/05/13 11:43:18;;;;;;;8.90;1.75;;;;;;;;;;5015003;28;20054;-75
2022/05/13 11:45:55;;;;;;;5.80;1.33;;;;;;;;;;5015745;28;20026;-76
2022/05/13 11:48:35;;;;;;;4.28;1.33;;;;;;;;;;5014960;28;20037;-75
2022/05/13 11:51:09;;;;;;;9.45;1.42;;;;;;;;;;5017633;28;20065;-77
2022/05/13 11:53:41;;;;;;;4.55;1.75;;;;;;;;;;5016335;28;20030;-79
2022/05/13 11:56:29;;;;;;;7.05;1.33;;;;;;;;;;5014086;28;20516;-78
2022/05/13 11:59:03;;;;;;;3.72;1.30;;;;;;;;;;5015212;28;20057;-76
2022/05/13 12:01:34;;;;;;;3.42;1.33;;;;;;;;;;5016006;28;20026;-78
2022/05/13 12:04:11;;;;;;;3.20;1.20;;;;;;;;;;5017029;28;20034;-80
2022/05/13 12:06:51;;;;;;;6.93;1.60;;;;;;;;;;5014516;28;20040;-78
2022/05/13 12:09:40;;;;;;;6.15;1.40;;;;;;;;;;5015391;28;20022;-77
2022/05/13 12:12:19;;;;;;;5.03;1.42;;;;;;;;;;5015409;28;20053;-77
2022/05/13 12:14:52;;;;;;;6.00;1.60;;;;;;;;;;5015464;28;20112;-79
2022/05/13 12:17:31;;;;;;;3.88;1.50;;;;;;;;;;5017222;28;20022;-78
2022/05/13 12:20:29;;;;;;;3.67;1.40;;;;;;;;;;5015709;28;20033;-78
2022/05/13 12:23:19;;;;;;;5.70;1.60;;;;;;;;;;5015372;28;20022;-76
2022/05/13 12:25:52;;;;;;;9.30;1.75;;;;;;;;;;5014138;28;20025;-78
2022/05/13 12:28:20;;;;;;;10.63;2.03;;;;;;;;;;5014400;28;20499;-76
2022/05/13 12:30:49;;;;;;;8.02;1.55;;;;;;;;;;5012841;28;20448;-77
